sensor_id;sensor_type;location;lat;lon;timestamp;temperature;humidity
15394;DHT22;7795;47.986;11.868;2022-11-20T00:00:43;9.00;79.10
15394;DHT22;7795;47.986;11.868;2022-11-20T00:03:09;9.00;79.10
15394;DHT22;7795;47.986;11.868;2022-11-20T00:05:35;9.00;79.10
15394;DHT22;7795;47.986;11.868;2022-11-20T00:08:02;9.00;78.90
15394;DHT22;7795;47.986;11.868;2022-11-20T00:10:28;9.00;79.70
15394;DHT22;7795;47.986;11.868;2022-11-20T00:12:54;9.00;79.00
15394;DHT22;7795;47.986;11.868;2022-11-20T00:15:19;9.00;79.00
15394;DHT22;7795;47.986;11.868;2022-11-20T00:17:45;9.00;78.90
15394;DHT22;7795;47.986;11.868;2022-11-20T00:20:12;8.90;78.90
15394;DHT22;7795;47.986;11.868;2022-11-20T00:22:38;9.00;79.00
15394;DHT22;7795;47.986;11.868;2022-11-20T00:25:06;8.90;78.90
15394;DHT22;7795;47.986;11.868;2022-11-20T00:27:32;8.90;79.00
15394;DHT22;7795;47.986;11.868;2022-11-20T00:29:57;8.90;79.10
15394;DHT22;7795;47.986;11.868;2022-11-20T00:32:23;8.90;79.10
15394;DHT22;7795;47.986;11.868;2022-11-20T00:34:49;8.90;79.10
15394;DHT22;7795;47.986;11.868;2022-11-20T00:37:15;8.90;79.80
15394;DHT22;7795;47.986;11.868;2022-11-20T00:39:40;8.90;79.10
15394;DHT22;7795;47.986;11.868;2022-11-20T00:42:08;8.90;79.10
15394;DHT22;7795;47.986;11.868;2022-11-20T00:44:33;8.90;79.10
15394;DHT22;7795;47.986;11.868;2022-11-20T00:46:59;8.80;79.10
15394;DHT22;7795;47.986;11.868;2022-11-20T00:49:25;8.80;79.10
15394;DHT22;7795;47.986;11.868;2022-11-20T00:51:50;8.80;79.20
15394;DHT22;7795;47.986;11.868;2022-11-20T00:54:16;8.80;79.20
15394;DHT22;7795;47.986;11.868;2022-11-20T00:56:42;8.80;79.20
15394;DHT22;7795;47.986;11.868;2022-11-20T00:59:10;8.80;79.10
15394;DHT22;7795;47.986;11.868;2022-11-20T01:01:36;8.80;79.20
15394;DHT22;7795;47.986;11.868;2022-11-20T01:04:03;8.80;79.20
15394;DHT22;7795;47.986;11.868;2022-11-20T01:06:30;8.80;79.20
15394;DHT22;7795;47.986;11.868;2022-11-20T01:08:58;8.80;79.30
15394;DHT22;7795;47.986;11.868;2022-11-20T01:11:26;8.80;79.30
15394;DHT22;7795;47.986;11.868;2022-11-20T01:13:53;8.70;79.20
15394;DHT22;7795;47.986;11.868;2022-11-20T01:16:22;8.70;79.40
15394;DHT22;7795;47.986;11.868;2022-11-20T01:18:50;8.70;79.40
15394;DHT22;7795;47.986;11.868;2022-11-20T01:21:18;8.70;79.40
15394;DHT22;7795;47.986;11.868;2022-11-20T01:23:44;8.80;79.50
15394;DHT22;7795;47.986;11.868;2022-11-20T01:26:12;8.80;80.30
15394;DHT22;7795;47.986;11.868;2022-11-20T01:28:38;8.80;79.50
15394;DHT22;7795;47.986;11.868;2022-11-20T01:31:11;8.80;79.50
15394;DHT22;7795;47.986;11.868;2022-11-20T01:33:39;8.80;79.50
15394;DHT22;7795;47.986;11.868;2022-11-20T01:36:07;8.80;79.50
15394;DHT22;7795;47.986;11.868;2022-11-20T01:38:33;8.80;79.50
15394;DHT22;7795;47.986;11.868;2022-11-20T01:40:59;8.80;79.50
15394;DHT22;7795;47.986;11.868;2022-11-20T01:43:26;8.80;79.60
15394;DHT22;7795;47.986;11.868;2022-11-20T01:46:01;8.80;79.50
15394;DHT22;7795;47.986;11.868;2022-11-20T01:48:31;8.90;79.60
15394;DHT22;7795;47.986;11.868;2022-11-20T01:51:01;8.90;79.60
15394;DHT22;7795;47.986;11.868;2022-11-20T01:53:30;8.90;79.50
15394;DHT22;7795;47.986;11.868;2022-11-20T01:55:59;8.90;79.40
15394;DHT22;7795;47.986;11.868;2022-11-20T01:58:28;8.90;79.40
15394;DHT22;7795;47.986;11.868;2022-11-20T02:00:55;8.90;79.40
15394;DHT22;7795;47.986;11.868;2022-11-20T02:03:21;8.90;80.10
15394;DHT22;7795;47.986;11.868;2022-11-20T02:05:51;9.00;79.40
15394;DHT22;7795;47.986;11.868;2022-11-20T02:08:19;9.00;79.40
15394;DHT22;7795;47.986;11.868;2022-11-20T02:10:45;9.00;79.40
15394;DHT22;7795;47.986;11.868;2022-11-20T02:13:11;9.00;79.40
15394;DHT22;7795;47.986;11.868;2022-11-20T02:15:55;9.00;79.40
15394;DHT22;7795;47.986;11.868;2022-11-20T02:18:21;9.00;79.20
15394;DHT22;7795;47.986;11.868;2022-11-20T02:20:51;9.10;79.30
15394;DHT22;7795;47.986;11.868;2022-11-20T02:23:23;9.10;79.20
15394;DHT22;7795;47.986;11.868;2022-11-20T02:25:52;9.10;79.10
15394;DHT22;7795;47.986;11.868;2022-11-20T02:28:20;9.10;79.80
15394;DHT22;7795;47.986;11.868;2022-11-20T02:30:46;9.10;79.00
15394;DHT22;7795;47.986;11.868;2022-11-20T02:33:12;9.10;79.00
15394;DHT22;7795;47.986;11.868;2022-11-20T02:35:45;9.10;79.00
15394;DHT22;7795;47.986;11.868;2022-11-20T02:38:12;9.10;79.00
15394;DHT22;7795;47.986;11.868;2022-11-20T02:40:38;9.10;79.00
15394;DHT22;7795;47.986;11.868;2022-11-20T02:43:05;9.10;79.00
15394;DHT22;7795;47.986;11.868;2022-11-20T02:45:31;9.10;78.90
15394;DHT22;7795;47.986;11.868;2022-11-20T02:47:57;9.10;78.80
15394;DHT22;7795;47.986;11.868;2022-11-20T02:50:22;9.10;78.80
15394;DHT22;7795;47.986;11.868;2022-11-20T02:52:48;9.10;78.80
15394;DHT22;7795;47.986;11.868;2022-11-20T02:55:14;9.10;78.70
15394;DHT22;7795;47.986;11.868;2022-11-20T02:57:40;9.10;78.70
15394;DHT22;7795;47.986;11.868;2022-11-20T03:00:08;9.10;78.70
15394;DHT22;7795;47.986;11.868;2022-11-20T03:02:34;9.10;78.80
15394;DHT22;7795;47.986;11.868;2022-11-20T03:05:00;9.00;78.70
15394;DHT22;7795;47.986;11.868;2022-11-20T03:07:26;9.10;78.70
15394;DHT22;7795;47.986;11.868;2022-11-20T03:09:52;9.00;78.70
15394;DHT22;7795;47.986;11.868;2022-11-20T03:12:17;9.00;78.70
15394;DHT22;7795;47.986;11.868;2022-11-20T03:14:43;9.00;78.70
15394;DHT22;7795;47.986;11.868;2022-11-20T03:17:10;9.00;78.70
15394;DHT22;7795;47.986;11.868;2022-11-20T03:19:36;9.00;78.50
15394;DHT22;7795;47.986;11.868;2022-11-20T03:22:02;9.00;78.60
15394;DHT22;7795;47.986;11.868;2022-11-20T03:24:28;8.90;78.50
15394;DHT22;7795;47.986;11.868;2022-11-20T03:26:54;9.00;78.50
15394;DHT22;7795;47.986;11.868;2022-11-20T03:29:19;8.90;78.50
15394;DHT22;7795;47.986;11.868;2022-11-20T03:31:45;8.90;78.50
15394;DHT22;7795;47.986;11.868;2022-11-20T03:34:12;8.90;78.50
15394;DHT22;7795;47.986;11.868;2022-11-20T03:36:39;8.90;78.50
15394;DHT22;7795;47.986;11.868;2022-11-20T03:39:05;8.80;78.40
15394;DHT22;7795;47.986;11.868;2022-11-20T03:41:35;8.80;78.50
15394;DHT22;7795;47.986;11.868;2022-11-20T03:44:03;8.80;78.50
15394;DHT22;7795;47.986;11.868;2022-11-20T03:46:29;8.80;78.50
15394;DHT22;7795;47.986;11.868;2022-11-20T03:48:55;8.80;78.40
15394;DHT22;7795;47.986;11.868;2022-11-20T03:51:23;8.80;78.40
15394;DHT22;7795;47.986;11.868;2022-11-20T03:53:51;8.80;78.40
15394;DHT22;7795;47.986;11.868;2022-11-20T03:56:19;8.80;78.50
15394;DHT22;7795;47.986;11.868;2022-11-20T03:58:45;8.70;78.40
15394;DHT22;7795;47.986;11.868;2022-11-20T04:01:13;8.70;78.40
15394;DHT22;7795;47.986;11.868;2022-11-20T04:03:40;8.70;78.50
15394;DHT22;7795;47.986;11.868;2022-11-20T04:06:08;8.70;78.50
15394;DHT22;7795;47.986;11.868;2022-11-20T04:08:36;8.70;78.50
15394;DHT22;7795;47.986;11.868;2022-11-20T04:11:11;8.70;78.60
15394;DHT22;7795;47.986;11.868;2022-11-20T04:13:38;8.70;78.50
15394;DHT22;7795;47.986;11.868;2022-11-20T04:16:04;8.70;78.60
15394;DHT22;7795;47.986;11.868;2022-11-20T04:18:30;8.70;78.60
15394;DHT22;7795;47.986;11.868;2022-11-20T04:20:56;8.70;78.60
15394;DHT22;7795;47.986;11.868;2022-11-20T04:23:22;8.70;79.40
15394;DHT22;7795;47.986;11.868;2022-11-20T04:25:50;8.70;78.70
15394;DHT22;7795;47.986;11.868;2022-11-20T04:28:16;8.70;78.60
15394;DHT22;7795;47.986;11.868;2022-11-20T04:30:41;8.70;78.60
15394;DHT22;7795;47.986;11.868;2022-11-20T04:33:07;8.70;78.60
15394;DHT22;7795;47.986;11.868;2022-11-20T04:35:34;8.70;78.60
15394;DHT22;7795;47.986;11.868;2022-11-20T04:38:00;8.70;78.60
15394;DHT22;7795;47.986;11.868;2022-11-20T04:40:25;8.70;78.60
15394;DHT22;7795;47.986;11.868;2022-11-20T04:42:52;8.70;78.60
15394;DHT22;7795;47.986;11.868;2022-11-20T04:45:18;8.70;78.60
15394;DHT22;7795;47.986;11.868;2022-11-20T04:47:44;8.70;78.60
15394;DHT22;7795;47.986;11.868;2022-11-20T04:50:10;8.70;78.60
15394;DHT22;7795;47.986;11.868;2022-11-20T04:52:35;8.70;78.70
15394;DHT22;7795;47.986;11.868;2022-11-20T04:55:01;8.70;78.70
15394;DHT22;7795;47.986;11.868;2022-11-20T04:57:27;8.80;78.70
15394;DHT22;7795;47.986;11.868;2022-11-20T04:59:54;8.70;78.60
15394;DHT22;7795;47.986;11.868;2022-11-20T05:02:20;8.70;78.60
15394;DHT22;7795;47.986;11.868;2022-11-20T05:04:46;8.70;78.50
15394;DHT22;7795;47.986;11.868;2022-11-20T05:07:11;8.80;78.50
15394;DHT22;7795;47.986;11.868;2022-11-20T05:09:37;8.80;78.60
15394;DHT22;7795;47.986;11.868;2022-11-20T05:12:03;8.80;78.60
15394;DHT22;7795;47.986;11.868;2022-11-20T05:14:29;8.80;78.50
15394;DHT22;7795;47.986;11.868;2022-11-20T05:16:56;8.80;78.40
15394;DHT22;7795;47.986;11.868;2022-11-20T05:19:22;8.80;79.20
15394;DHT22;7795;47.986;11.868;2022-11-20T05:21:48;8.80;78.50
15394;DHT22;7795;47.986;11.868;2022-11-20T05:24:14;8.90;78.50
15394;DHT22;7795;47.986;11.868;2022-11-20T05:26:39;8.90;78.40
15394;DHT22;7795;47.986;11.868;2022-11-20T05:29:05;8.90;78.40
15394;DHT22;7795;47.986;11.868;2022-11-20T05:31:31;8.90;78.40
15394;DHT22;7795;47.986;11.868;2022-11-20T05:33:58;8.90;78.40
15394;DHT22;7795;47.986;11.868;2022-11-20T05:36:24;8.90;78.40
15394;DHT22;7795;47.986;11.868;2022-11-20T05:38:50;8.90;79.10
15394;DHT22;7795;47.986;11.868;2022-11-20T05:41:17;8.90;78.40
15394;DHT22;7795;47.986;11.868;2022-11-20T05:43:44;8.90;78.40
15394;DHT22;7795;47.986;11.868;2022-11-20T05:46:12;8.90;78.40
15394;DHT22;7795;47.986;11.868;2022-11-20T05:48:39;9.00;78.40
15394;DHT22;7795;47.986;11.868;2022-11-20T05:51:09;8.90;78.40
15394;DHT22;7795;47.986;11.868;2022-11-20T05:53:36;8.90;78.40
15394;DHT22;7795;47.986;11.868;2022-11-20T05:56:04;8.90;78.40
15394;DHT22;7795;47.986;11.868;2022-11-20T05:58:31;8.90;78.40
15394;DHT22;7795;47.986;11.868;2022-11-20T06:01:04;8.90;78.40
15394;DHT22;7795;47.986;11.868;2022-11-20T06:03:30;9.00;78.50
15394;DHT22;7795;47.986;11.868;2022-11-20T06:05:56;8.90;78.50
15394;DHT22;7795;47.986;11.868;2022-11-20T06:08:23;8.90;78.50
15394;DHT22;7795;47.986;11.868;2022-11-20T06:10:48;8.90;78.50
15394;DHT22;7795;47.986;11.868;2022-11-20T06:13:14;8.90;78.50
15394;DHT22;7795;47.986;11.868;2022-11-20T06:15:40;8.90;78.60
15394;DHT22;7795;47.986;11.868;2022-11-20T06:18:06;8.90;78.70
15394;DHT22;7795;47.986;11.868;2022-11-20T06:20:31;8.90;78.50
15394;DHT22;7795;47.986;11.868;2022-11-20T06:22:57;8.90;78.50
15394;DHT22;7795;47.986;11.868;2022-11-20T06:25:24;8.90;78.50
15394;DHT22;7795;47.986;11.868;2022-11-20T06:27:50;8.90;78.50
15394;DHT22;7795;47.986;11.868;2022-11-20T06:30:16;8.90;78.40
15394;DHT22;7795;47.986;11.868;2022-11-20T06:32:41;8.90;78.40
15394;DHT22;7795;47.986;11.868;2022-11-20T06:35:08;8.90;78.40
15394;DHT22;7795;47.986;11.868;2022-11-20T06:37:34;8.90;78.30
15394;DHT22;7795;47.986;11.868;2022-11-20T06:40:00;8.90;78.20
15394;DHT22;7795;47.986;11.868;2022-11-20T06:42:27;8.90;78.10
15394;DHT22;7795;47.986;11.868;2022-11-20T06:44:53;8.90;78.00
15394;DHT22;7795;47.986;11.868;2022-11-20T06:47:18;8.90;78.00
15394;DHT22;7795;47.986;11.868;2022-11-20T06:49:44;8.80;77.90
15394;DHT22;7795;47.986;11.868;2022-11-20T06:52:10;8.80;77.80
15394;DHT22;7795;47.986;11.868;2022-11-20T06:54:35;8.80;77.70
15394;DHT22;7795;47.986;11.868;2022-11-20T06:57:01;8.80;77.70
15394;DHT22;7795;47.986;11.868;2022-11-20T06:59:28;8.80;78.40
15394;DHT22;7795;47.986;11.868;2022-11-20T07:01:54;8.80;77.70
15394;DHT22;7795;47.986;11.868;2022-11-20T07:04:20;8.70;77.60
15394;DHT22;7795;47.986;11.868;2022-11-20T07:06:45;8.70;77.60
15394;DHT22;7795;47.986;11.868;2022-11-20T07:09:11;8.70;77.60
15394;DHT22;7795;47.986;11.868;2022-11-20T07:11:37;8.70;77.60
15394;DHT22;7795;47.986;11.868;2022-11-20T07:14:03;8.70;77.60
15394;DHT22;7795;47.986;11.868;2022-11-20T07:16:30;8.70;77.60
15394;DHT22;7795;47.986;11.868;2022-11-20T07:18:55;8.70;77.60
15394;DHT22;7795;47.986;11.868;2022-11-20T07:21:21;8.70;77.60
15394;DHT22;7795;47.986;11.868;2022-11-20T07:23:47;8.70;77.60
15394;DHT22;7795;47.986;11.868;2022-11-20T07:26:13;8.70;77.80
15394;DHT22;7795;47.986;11.868;2022-11-20T07:28:38;8.70;77.60
15394;DHT22;7795;47.986;11.868;2022-11-20T07:31:05;8.70;77.60
15394;DHT22;7795;47.986;11.868;2022-11-20T07:33:33;8.70;77.80
15394;DHT22;7795;47.986;11.868;2022-11-20T07:35:59;8.70;77.80
15394;DHT22;7795;47.986;11.868;2022-11-20T07:38:25;8.70;77.90
15394;DHT22;7795;47.986;11.868;2022-11-20T07:40:53;8.70;78.70
15394;DHT22;7795;47.986;11.868;2022-11-20T07:43:20;8.70;78.00
15394;DHT22;7795;47.986;11.868;2022-11-20T07:45:45;8.70;78.10
15394;DHT22;7795;47.986;11.868;2022-11-20T07:48:11;8.70;78.10
15394;DHT22;7795;47.986;11.868;2022-11-20T07:50:38;8.70;78.20
15394;DHT22;7795;47.986;11.868;2022-11-20T07:53:05;8.70;78.20
15394;DHT22;7795;47.986;11.868;2022-11-20T07:55:31;8.80;78.20
15394;DHT22;7795;47.986;11.868;2022-11-20T07:57:57;8.80;78.20
15394;DHT22;7795;47.986;11.868;2022-11-20T08:00:24;8.80;78.30
15394;DHT22;7795;47.986;11.868;2022-11-20T08:02:50;8.80;78.30
15394;DHT22;7795;47.986;11.868;2022-11-20T08:05:16;8.90;79.10
15394;DHT22;7795;47.986;11.868;2022-11-20T08:07:43;8.90;78.40
15394;DHT22;7795;47.986;11.868;2022-11-20T08:10:11;9.00;78.40
15394;DHT22;7795;47.986;11.868;2022-11-20T08:12:44;9.00;78.40
15394;DHT22;7795;47.986;11.868;2022-11-20T08:15:29;9.10;78.20
15394;DHT22;7795;47.986;11.868;2022-11-20T08:18:00;9.10;78.20
15394;DHT22;7795;47.986;11.868;2022-11-20T08:20:26;9.20;78.10
15394;DHT22;7795;47.986;11.868;2022-11-20T08:22:57;9.30;78.10
15394;DHT22;7795;47.986;11.868;2022-11-20T08:25:24;9.30;77.80
15394;DHT22;7795;47.986;11.868;2022-11-20T08:27:50;9.40;77.80
15394;DHT22;7795;47.986;11.868;2022-11-20T08:30:15;9.50;78.20
15394;DHT22;7795;47.986;11.868;2022-11-20T08:32:41;9.50;77.10
15394;DHT22;7795;47.986;11.868;2022-11-20T08:35:08;9.60;76.90
15394;DHT22;7795;47.986;11.868;2022-11-20T08:37:33;9.60;76.60
15394;DHT22;7795;47.986;11.868;2022-11-20T08:40:01;9.70;76.50
15394;DHT22;7795;47.986;11.868;2022-11-20T08:42:26;9.70;76.40
15394;DHT22;7795;47.986;11.868;2022-11-20T08:44:52;9.70;76.90
15394;DHT22;7795;47.986;11.868;2022-11-20T08:47:18;9.80;76.00
15394;DHT22;7795;47.986;11.868;2022-11-20T08:49:43;9.80;75.90
15394;DHT22;7795;47.986;11.868;2022-11-20T08:52:09;9.80;76.50
15394;DHT22;7795;47.986;11.868;2022-11-20T08:54:35;9.80;75.50
15394;DHT22;7795;47.986;11.868;2022-11-20T08:57:02;9.80;75.50
15394;DHT22;7795;47.986;11.868;2022-11-20T08:59:28;9.80;75.30
15394;DHT22;7795;47.986;11.868;2022-11-20T09:01:54;9.80;75.30
15394;DHT22;7795;47.986;11.868;2022-11-20T09:04:19;9.80;75.20
15394;DHT22;7795;47.986;11.868;2022-11-20T09:06:45;9.90;75.10
15394;DHT22;7795;47.986;11.868;2022-11-20T09:09:11;9.90;74.70
15394;DHT22;7795;47.986;11.868;2022-11-20T09:11:37;9.90;74.80
15394;DHT22;7795;47.986;11.868;2022-11-20T09:14:04;9.90;74.80
15394;DHT22;7795;47.986;11.868;2022-11-20T09:16:30;9.90;74.70
15394;DHT22;7795;47.986;11.868;2022-11-20T09:18:55;9.90;74.60
15394;DHT22;7795;47.986;11.868;2022-11-20T09:21:21;10.00;75.30
15394;DHT22;7795;47.986;11.868;2022-11-20T09:23:48;10.00;74.30
15394;DHT22;7795;47.986;11.868;2022-11-20T09:26:14;10.00;74.40
15394;DHT22;7795;47.986;11.868;2022-11-20T09:28:40;10.10;74.40
15394;DHT22;7795;47.986;11.868;2022-11-20T09:31:08;10.10;74.10
15394;DHT22;7795;47.986;11.868;2022-11-20T09:33:35;10.10;74.00
15394;DHT22;7795;47.986;11.868;2022-11-20T09:36:01;10.10;73.80
15394;DHT22;7795;47.986;11.868;2022-11-20T09:38:27;10.20;73.80
15394;DHT22;7795;47.986;11.868;2022-11-20T09:40:57;10.20;74.00
15394;DHT22;7795;47.986;11.868;2022-11-20T09:43:30;10.20;73.30
15394;DHT22;7795;47.986;11.868;2022-11-20T09:46:07;10.30;73.90
15394;DHT22;7795;47.986;11.868;2022-11-20T09:51:39;10.40;72.70
15394;DHT22;7795;47.986;11.868;2022-11-20T09:54:16;10.40;72.70
15394;DHT22;7795;47.986;11.868;2022-11-20T09:56:45;10.40;72.30
15394;DHT22;7795;47.986;11.868;2022-11-20T09:59:23;10.40;72.40
15394;DHT22;7795;47.986;11.868;2022-11-20T10:01:54;10.50;72.10
15394;DHT22;7795;47.986;11.868;2022-11-20T10:04:21;10.50;72.40
15394;DHT22;7795;47.986;11.868;2022-11-20T10:06:52;10.50;72.40
15394;DHT22;7795;47.986;11.868;2022-11-20T10:09:27;10.60;71.70
15394;DHT22;7795;47.986;11.868;2022-11-20T10:12:06;10.60;71.50
15394;DHT22;7795;47.986;11.868;2022-11-20T10:14:42;10.70;71.10
15394;DHT22;7795;47.986;11.868;2022-11-20T10:17:22;10.70;71.30
15394;DHT22;7795;47.986;11.868;2022-11-20T10:20:02;10.70;71.00
15394;DHT22;7795;47.986;11.868;2022-11-20T10:22:41;10.80;70.50
15394;DHT22;7795;47.986;11.868;2022-11-20T10:25:14;10.80;70.80
15394;DHT22;7795;47.986;11.868;2022-11-20T10:28:04;10.90;70.70
15394;DHT22;7795;47.986;11.868;2022-11-20T10:30:36;10.90;69.80
15394;DHT22;7795;47.986;11.868;2022-11-20T10:33:10;10.90;70.70
15394;DHT22;7795;47.986;11.868;2022-11-20T10:35:40;11.00;70.50
15394;DHT22;7795;47.986;11.868;2022-11-20T10:38:12;11.00;70.40
15394;DHT22;7795;47.986;11.868;2022-11-20T10:40:42;11.00;70.20
15394;DHT22;7795;47.986;11.868;2022-11-20T10:43:13;11.10;70.50
15394;DHT22;7795;47.986;11.868;2022-11-20T10:45:53;11.10;70.20
15394;DHT22;7795;47.986;11.868;2022-11-20T10:48:24;11.20;70.10
15394;DHT22;7795;47.986;11.868;2022-11-20T10:51:02;11.30;70.10
15394;DHT22;7795;47.986;11.868;2022-11-20T10:53:44;11.30;69.80
15394;DHT22;7795;47.986;11.868;2022-11-20T10:56:17;11.40;69.20
15394;DHT22;7795;47.986;11.868;2022-11-20T10:58:52;11.50;69.40
15394;DHT22;7795;47.986;11.868;2022-11-20T11:01:20;11.50;69.30
15394;DHT22;7795;47.986;11.868;2022-11-20T11:03:51;11.50;69.30
15394;DHT22;7795;47.986;11.868;2022-11-20T11:06:24;11.60;68.90
15394;DHT22;7795;47.986;11.868;2022-11-20T11:08:53;11.60;68.10
15394;DHT22;7795;47.986;11.868;2022-11-20T11:11:23;11.60;68.50
15394;DHT22;7795;47.986;11.868;2022-11-20T11:13:50;11.60;68.40
15394;DHT22;7795;47.986;11.868;2022-11-20T11:16:26;11.60;68.20
15394;DHT22;7795;47.986;11.868;2022-11-20T11:19:04;11.60;67.40
15394;DHT22;7795;47.986;11.868;2022-11-20T11:21:30;11.60;66.80
15394;DHT22;7795;47.986;11.868;2022-11-20T11:24:00;11.50;68.10
15394;DHT22;7795;47.986;11.868;2022-11-20T11:26:27;11.50;67.70
15394;DHT22;7795;47.986;11.868;2022-11-20T11:28:57;11.50;67.80
15394;DHT22;7795;47.986;11.868;2022-11-20T11:31:25;11.50;67.90
15394;DHT22;7795;47.986;11.868;2022-11-20T11:33:51;11.50;67.20
15394;DHT22;7795;47.986;11.868;2022-11-20T11:36:20;11.50;67.70
15394;DHT22;7795;47.986;11.868;2022-11-20T11:38:51;11.60;67.80
15394;DHT22;7795;47.986;11.868;2022-11-20T11:41:20;11.60;67.80
15394;DHT22;7795;47.986;11.868;2022-11-20T11:43:52;11.60;67.20
15394;DHT22;7795;47.986;11.868;2022-11-20T11:46:53;11.60;67.50
15394;DHT22;7795;47.986;11.868;2022-11-20T11:49:20;11.70;67.80
15394;DHT22;7795;47.986;11.868;2022-11-20T11:51:59;11.70;67.60
15394;DHT22;7795;47.986;11.868;2022-11-20T11:54:30;11.70;66.90
15394;DHT22;7795;47.986;11.868;2022-11-20T11:57:01;11.70;67.30
15394;DHT22;7795;47.986;11.868;2022-11-20T11:59:37;11.70;67.40
15394;DHT22;7795;47.986;11.868;2022-11-20T12:02:27;11.70;67.20
15394;DHT22;7795;47.986;11.868;2022-11-20T12:04:58;11.70;66.60
15394;DHT22;7795;47.986;11.868;2022-11-20T12:07:37;11.70;67.40
15394;DHT22;7795;47.986;11.868;2022-11-20T12:10:05;11.70;67.10
15394;DHT22;7795;47.986;11.868;2022-11-20T12:12:34;11.60;67.40
15394;DHT22;7795;47.986;11.868;2022-11-20T12:15:02;11.60;67.20
15394;DHT22;7795;47.986;11.868;2022-11-20T12:17:29;11.60;67.30
15394;DHT22;7795;47.986;11.868;2022-11-20T12:19:55;11.60;67.10
15394;DHT22;7795;47.986;11.868;2022-11-20T12:22:31;11.60;66.90
15394;DHT22;7795;47.986;11.868;2022-11-20T12:25:05;11.60;66.80
15394;DHT22;7795;47.986;11.868;2022-11-20T12:27:51;11.60;67.10
15394;DHT22;7795;47.986;11.868;2022-11-20T12:30:22;11.60;66.50
15394;DHT22;7795;47.986;11.868;2022-11-20T12:33:13;11.60;67.20
15394;DHT22;7795;47.986;11.868;2022-11-20T12:35:54;11.60;66.10
15394;DHT22;7795;47.986;11.868;2022-11-20T12:41:29;11.60;66.40
15394;DHT22;7795;47.986;11.868;2022-11-20T12:44:24;11.60;66.50
15394;DHT22;7795;47.986;11.868;2022-11-20T12:47:22;11.60;66.40
15394;DHT22;7795;47.986;11.868;2022-11-20T12:49:56;11.60;66.80
15394;DHT22;7795;47.986;11.868;2022-11-20T12:52:38;11.60;66.60
15394;DHT22;7795;47.986;11.868;2022-11-20T12:55:36;11.60;66.50
15394;DHT22;7795;47.986;11.868;2022-11-20T12:58:12;11.70;66.40
15394;DHT22;7795;47.986;11.868;2022-11-20T13:00:50;11.70;67.10
15394;DHT22;7795;47.986;11.868;2022-11-20T13:03:39;11.70;66.80
15394;DHT22;7795;47.986;11.868;2022-11-20T13:06:13;11.60;66.80
15394;DHT22;7795;47.986;11.868;2022-11-20T13:08:42;11.70;67.60
15394;DHT22;7795;47.986;11.868;2022-11-20T13:11:16;11.70;67.80
15394;DHT22;7795;47.986;11.868;2022-11-20T13:14:11;11.70;67.50
15394;DHT22;7795;47.986;11.868;2022-11-20T13:16:45;11.70;67.40
15394;DHT22;7795;47.986;11.868;2022-11-20T13:19:15;11.60;67.60
15394;DHT22;7795;47.986;11.868;2022-11-20T13:21:43;11.60;67.80
15394;DHT22;7795;47.986;11.868;2022-11-20T13:24:22;11.50;68.00
15394;DHT22;7795;47.986;11.868;2022-11-20T13:27:00;11.50;68.20
15394;DHT22;7795;47.986;11.868;2022-11-20T13:29:26;11.40;68.20
15394;DHT22;7795;47.986;11.868;2022-11-20T13:32:02;11.30;68.50
15394;DHT22;7795;47.986;11.868;2022-11-20T13:34:29;11.30;68.70
15394;DHT22;7795;47.986;11.868;2022-11-20T13:36:56;11.20;68.90
15394;DHT22;7795;47.986;11.868;2022-11-20T13:39:26;11.10;69.20
15394;DHT22;7795;47.986;11.868;2022-11-20T13:41:56;11.10;69.50
15394;DHT22;7795;47.986;11.868;2022-11-20T13:44:26;11.00;69.70
15394;DHT22;7795;47.986;11.868;2022-11-20T13:46:54;11.00;70.00
15394;DHT22;7795;47.986;11.868;2022-11-20T13:49:25;10.90;70.00
15394;DHT22;7795;47.986;11.868;2022-11-20T13:51:54;10.90;70.30
15394;DHT22;7795;47.986;11.868;2022-11-20T13:54:44;10.80;70.50
15394;DHT22;7795;47.986;11.868;2022-11-20T13:57:40;10.80;70.90
15394;DHT22;7795;47.986;11.868;2022-11-20T14:00:12;10.80;71.00
15394;DHT22;7795;47.986;11.868;2022-11-20T14:02:38;10.70;71.00
15394;DHT22;7795;47.986;11.868;2022-11-20T14:05:05;10.70;71.10
15394;DHT22;7795;47.986;11.868;2022-11-20T14:07:34;10.70;71.20
15394;DHT22;7795;47.986;11.868;2022-11-20T14:10:02;10.60;71.30
15394;DHT22;7795;47.986;11.868;2022-11-20T14:12:29;10.60;71.30
15394;DHT22;7795;47.986;11.868;2022-11-20T14:14:57;10.60;71.50
15394;DHT22;7795;47.986;11.868;2022-11-20T14:17:24;10.60;71.70
15394;DHT22;7795;47.986;11.868;2022-11-20T14:19:55;10.60;71.70
15394;DHT22;7795;47.986;11.868;2022-11-20T14:22:22;10.60;71.50
15394;DHT22;7795;47.986;11.868;2022-11-20T14:25:03;10.60;71.50
15394;DHT22;7795;47.986;11.868;2022-11-20T14:27:28;10.60;71.40
15394;DHT22;7795;47.986;11.868;2022-11-20T14:29:56;10.60;71.20
15394;DHT22;7795;47.986;11.868;2022-11-20T14:32:26;10.60;71.10
15394;DHT22;7795;47.986;11.868;2022-11-20T14:34:53;10.50;71.00
15394;DHT22;7795;47.986;11.868;2022-11-20T14:37:21;10.50;71.00
15394;DHT22;7795;47.986;11.868;2022-11-20T14:39:50;10.50;70.90
15394;DHT22;7795;47.986;11.868;2022-11-20T14:42:20;10.50;71.10
15394;DHT22;7795;47.986;11.868;2022-11-20T14:44:47;10.50;71.10
15394;DHT22;7795;47.986;11.868;2022-11-20T14:47:18;10.50;71.10
15394;DHT22;7795;47.986;11.868;2022-11-20T14:49:44;10.50;71.10
15394;DHT22;7795;47.986;11.868;2022-11-20T14:52:13;10.40;71.80
15394;DHT22;7795;47.986;11.868;2022-11-20T14:54:44;10.40;70.80
15394;DHT22;7795;47.986;11.868;2022-11-20T14:57:21;10.40;70.80
15394;DHT22;7795;47.986;11.868;2022-11-20T14:59:48;10.40;70.90
15394;DHT22;7795;47.986;11.868;2022-11-20T15:02:15;10.40;71.10
15394;DHT22;7795;47.986;11.868;2022-11-20T15:04:45;10.40;71.20
15394;DHT22;7795;47.986;11.868;2022-11-20T15:07:11;10.30;71.10
15394;DHT22;7795;47.986;11.868;2022-11-20T15:09:37;10.30;71.00
15394;DHT22;7795;47.986;11.868;2022-11-20T15:12:03;10.30;71.00
15394;DHT22;7795;47.986;11.868;2022-11-20T15:14:30;10.30;70.80
15394;DHT22;7795;47.986;11.868;2022-11-20T15:16:59;10.30;70.80
15394;DHT22;7795;47.986;11.868;2022-11-20T15:19:26;10.30;70.80
15394;DHT22;7795;47.986;11.868;2022-11-20T15:21:52;10.20;70.90
15394;DHT22;7795;47.986;11.868;2022-11-20T15:24:18;10.20;71.00
15394;DHT22;7795;47.986;11.868;2022-11-20T15:26:44;10.20;71.00
15394;DHT22;7795;47.986;11.868;2022-11-20T15:29:11;10.20;71.10
15394;DHT22;7795;47.986;11.868;2022-11-20T15:31:38;10.20;71.20
15394;DHT22;7795;47.986;11.868;2022-11-20T15:34:09;10.20;71.10
15394;DHT22;7795;47.986;11.868;2022-11-20T15:36:37;10.20;71.20
15394;DHT22;7795;47.986;11.868;2022-11-20T15:39:02;10.20;70.50
15394;DHT22;7795;47.986;11.868;2022-11-20T15:41:28;10.20;71.80
15394;DHT22;7795;47.986;11.868;2022-11-20T15:43:54;10.20;71.60
15394;DHT22;7795;47.986;11.868;2022-11-20T15:46:25;10.20;70.80
15394;DHT22;7795;47.986;11.868;2022-11-20T15:48:54;10.20;70.60
15394;DHT22;7795;47.986;11.868;2022-11-20T15:51:25;10.20;70.50
15394;DHT22;7795;47.986;11.868;2022-11-20T15:53:54;10.20;70.40
15394;DHT22;7795;47.986;11.868;2022-11-20T15:56:20;10.10;70.30